Baudette, Minnesota
Current Conditions -  °F | °C
As of 2:53 AM on Wednesday 22 Oct 2014 (Local Time) from KBDE Reporting Station
Clear Clear  
Wind Chill: 40°   Ceiling: Unl
Heat Index: 44°   Visibility: 10mi
Dew Point: 37°   Wind: 8mph
Humidity: 76%   Direction: 140°SE
Pressure: 30"   Gusts: NA
Location:  48.71°N, 94.6°W
Report Text: KBDE 220753Z AUTO 14007KT 10SM CLR 07/03 A3000 RMK AO2 SLP165 T00670028 TSNO
Loading
Personal Weather Stations






























Interactive Weather Map
Tropical Storm Tracking
New forecast layout! Learn more

10-Day Weather Forecast

Advertisements
Track Severe Weather on mobile